sensor_id;sensor_type;location;lat;lon;timestamp;P1;durP1;ratioP1;P2;durP2;ratioP2
1563;SDS011;775;51.958;7.976;2023-04-29T00:00:50;38.27;;;18.50;;
1563;SDS011;775;51.958;7.976;2023-04-29T00:03:17;35.67;;;18.20;;
1563;SDS011;775;51.958;7.976;2023-04-29T00:05:44;38.67;;;19.50;;
1563;SDS011;775;51.958;7.976;2023-04-29T00:08:11;34.00;;;17.80;;
1563;SDS011;775;51.958;7.976;2023-04-29T00:10:39;33.57;;;18.67;;
1563;SDS011;775;51.958;7.976;2023-04-29T00:13:06;34.43;;;20.20;;
1563;SDS011;775;51.958;7.976;2023-04-29T00:15:33;34.30;;;20.10;;
1563;SDS011;775;51.958;7.976;2023-04-29T00:18:02;40.53;;;21.37;;
1563;SDS011;775;51.958;7.976;2023-04-29T00:20:29;36.77;;;19.60;;
1563;SDS011;775;51.958;7.976;2023-04-29T00:22:57;36.90;;;21.10;;
1563;SDS011;775;51.958;7.976;2023-04-29T00:25:24;36.93;;;21.47;;
1563;SDS011;775;51.958;7.976;2023-04-29T00:27:51;39.77;;;22.10;;
1563;SDS011;775;51.958;7.976;2023-04-29T00:30:18;38.40;;;20.97;;
1563;SDS011;775;51.958;7.976;2023-04-29T00:32:45;38.40;;;22.50;;
1563;SDS011;775;51.958;7.976;2023-04-29T00:35:13;41.37;;;21.57;;
1563;SDS011;775;51.958;7.976;2023-04-29T00:37:40;37.50;;;20.70;;
1563;SDS011;775;51.958;7.976;2023-04-29T00:40:08;37.20;;;20.90;;
1563;SDS011;775;51.958;7.976;2023-04-29T00:42:39;41.57;;;22.10;;
1563;SDS011;775;51.958;7.976;2023-04-29T00:45:06;40.30;;;22.40;;
1563;SDS011;775;51.958;7.976;2023-04-29T00:47:34;42.80;;;23.47;;
1563;SDS011;775;51.958;7.976;2023-04-29T00:50:01;39.30;;;21.40;;
1563;SDS011;775;51.958;7.976;2023-04-29T00:52:29;48.47;;;23.53;;
1563;SDS011;775;51.958;7.976;2023-04-29T00:54:56;43.80;;;23.83;;
1563;SDS011;775;51.958;7.976;2023-04-29T00:57:24;42.90;;;21.70;;
1563;SDS011;775;51.958;7.976;2023-04-29T00:59:53;43.87;;;22.73;;
1563;SDS011;775;51.958;7.976;2023-04-29T01:02:20;43.20;;;23.20;;
1563;SDS011;775;51.958;7.976;2023-04-29T01:04:47;46.30;;;23.90;;
1563;SDS011;775;51.958;7.976;2023-04-29T01:07:14;46.03;;;22.83;;
1563;SDS011;775;51.958;7.976;2023-04-29T01:09:49;46.77;;;25.00;;
1563;SDS011;775;51.958;7.976;2023-04-29T01:12:19;46.83;;;23.53;;
1563;SDS011;775;51.958;7.976;2023-04-29T01:14:50;49.83;;;24.53;;
1563;SDS011;775;51.958;7.976;2023-04-29T01:17:21;49.17;;;24.13;;
1563;SDS011;775;51.958;7.976;2023-04-29T01:19:53;47.47;;;24.93;;
1563;SDS011;775;51.958;7.976;2023-04-29T01:22:21;45.77;;;24.13;;
1563;SDS011;775;51.958;7.976;2023-04-29T01:24:49;49.27;;;24.27;;
1563;SDS011;775;51.958;7.976;2023-04-29T01:27:20;48.57;;;25.47;;
1563;SDS011;775;51.958;7.976;2023-04-29T01:29:50;49.20;;;25.70;;
1563;SDS011;775;51.958;7.976;2023-04-29T01:32:21;45.10;;;23.43;;
1563;SDS011;775;51.958;7.976;2023-04-29T01:34:52;48.43;;;22.83;;
1563;SDS011;775;51.958;7.976;2023-04-29T01:37:21;47.60;;;21.97;;
1563;SDS011;775;51.958;7.976;2023-04-29T01:39:56;43.27;;;20.80;;
1563;SDS011;775;51.958;7.976;2023-04-29T01:42:28;40.10;;;19.57;;
1563;SDS011;775;51.958;7.976;2023-04-29T01:44:56;42.80;;;20.60;;
1563;SDS011;775;51.958;7.976;2023-04-29T01:47:26;37.90;;;18.57;;
1563;SDS011;775;51.958;7.976;2023-04-29T01:49:55;41.83;;;19.73;;
1563;SDS011;775;51.958;7.976;2023-04-29T01:52:22;37.90;;;18.10;;
1563;SDS011;775;51.958;7.976;2023-04-29T01:54:50;36.40;;;18.20;;
1563;SDS011;775;51.958;7.976;2023-04-29T01:57:18;35.40;;;19.50;;
1563;SDS011;775;51.958;7.976;2023-04-29T01:59:45;33.80;;;16.90;;
1563;SDS011;775;51.958;7.976;2023-04-29T02:02:12;33.37;;;16.70;;
1563;SDS011;775;51.958;7.976;2023-04-29T02:04:39;31.67;;;16.13;;
1563;SDS011;775;51.958;7.976;2023-04-29T02:07:07;32.50;;;17.13;;
1563;SDS011;775;51.958;7.976;2023-04-29T02:09:34;34.60;;;17.33;;
1563;SDS011;775;51.958;7.976;2023-04-29T02:12:01;33.90;;;17.43;;
1563;SDS011;775;51.958;7.976;2023-04-29T02:14:30;32.67;;;15.20;;
1563;SDS011;775;51.958;7.976;2023-04-29T02:16:58;28.93;;;14.70;;
1563;SDS011;775;51.958;7.976;2023-04-29T02:19:25;28.57;;;14.97;;
1563;SDS011;775;51.958;7.976;2023-04-29T02:21:52;32.10;;;16.87;;
1563;SDS011;775;51.958;7.976;2023-04-29T02:24:19;34.33;;;16.90;;
1563;SDS011;775;51.958;7.976;2023-04-29T02:26:46;33.57;;;18.13;;
1563;SDS011;775;51.958;7.976;2023-04-29T02:29:13;32.80;;;17.30;;
1563;SDS011;775;51.958;7.976;2023-04-29T02:31:42;33.63;;;17.23;;
1563;SDS011;775;51.958;7.976;2023-04-29T02:34:09;34.03;;;16.50;;
1563;SDS011;775;51.958;7.976;2023-04-29T02:36:36;37.23;;;18.67;;
1563;SDS011;775;51.958;7.976;2023-04-29T02:39:03;34.07;;;17.90;;
1563;SDS011;775;51.958;7.976;2023-04-29T02:41:30;34.23;;;17.87;;
1563;SDS011;775;51.958;7.976;2023-04-29T02:43:57;35.63;;;19.00;;
1563;SDS011;775;51.958;7.976;2023-04-29T02:46:24;35.13;;;19.10;;
1563;SDS011;775;51.958;7.976;2023-04-29T02:48:53;33.27;;;18.90;;
1563;SDS011;775;51.958;7.976;2023-04-29T02:51:20;34.97;;;18.70;;
1563;SDS011;775;51.958;7.976;2023-04-29T02:53:47;34.67;;;19.27;;
1563;SDS011;775;51.958;7.976;2023-04-29T02:56:14;35.17;;;19.63;;
1563;SDS011;775;51.958;7.976;2023-04-29T02:58:41;37.97;;;19.83;;
1563;SDS011;775;51.958;7.976;2023-04-29T03:01:08;36.67;;;19.90;;
1563;SDS011;775;51.958;7.976;2023-04-29T03:03:35;34.60;;;20.60;;
1563;SDS011;775;51.958;7.976;2023-04-29T03:06:04;33.60;;;19.60;;
1563;SDS011;775;51.958;7.976;2023-04-29T03:08:31;39.57;;;19.80;;
1563;SDS011;775;51.958;7.976;2023-04-29T03:10:58;39.07;;;20.30;;
1563;SDS011;775;51.958;7.976;2023-04-29T03:13:25;34.47;;;22.30;;
1563;SDS011;775;51.958;7.976;2023-04-29T03:15:52;35.50;;;20.80;;
1563;SDS011;775;51.958;7.976;2023-04-29T03:18:22;35.73;;;21.13;;
1563;SDS011;775;51.958;7.976;2023-04-29T03:20:49;36.00;;;21.27;;
1563;SDS011;775;51.958;7.976;2023-04-29T03:23:18;35.63;;;22.73;;
1563;SDS011;775;51.958;7.976;2023-04-29T03:25:46;36.83;;;19.90;;
1563;SDS011;775;51.958;7.976;2023-04-29T03:28:13;34.40;;;20.47;;
1563;SDS011;775;51.958;7.976;2023-04-29T03:30:41;37.20;;;23.43;;
1563;SDS011;775;51.958;7.976;2023-04-29T03:33:08;38.97;;;22.67;;
1563;SDS011;775;51.958;7.976;2023-04-29T03:35:35;38.50;;;22.93;;
1563;SDS011;775;51.958;7.976;2023-04-29T03:38:02;39.67;;;24.10;;
1563;SDS011;775;51.958;7.976;2023-04-29T03:40:30;34.10;;;21.97;;
1563;SDS011;775;51.958;7.976;2023-04-29T03:42:57;37.63;;;23.13;;
1563;SDS011;775;51.958;7.976;2023-04-29T03:45:25;35.40;;;22.60;;
1563;SDS011;775;51.958;7.976;2023-04-29T03:47:52;37.50;;;23.47;;
1563;SDS011;775;51.958;7.976;2023-04-29T03:50:19;38.07;;;23.53;;
1563;SDS011;775;51.958;7.976;2023-04-29T03:52:46;37.83;;;24.87;;
1563;SDS011;775;51.958;7.976;2023-04-29T03:55:13;37.40;;;24.27;;
1563;SDS011;775;51.958;7.976;2023-04-29T03:57:42;36.20;;;25.90;;
1563;SDS011;775;51.958;7.976;2023-04-29T04:00:10;37.13;;;24.77;;
1563;SDS011;775;51.958;7.976;2023-04-29T04:02:37;35.00;;;23.37;;
1563;SDS011;775;51.958;7.976;2023-04-29T04:05:04;35.70;;;25.30;;
1563;SDS011;775;51.958;7.976;2023-04-29T04:07:31;37.00;;;25.33;;
1563;SDS011;775;51.958;7.976;2023-04-29T04:09:58;35.13;;;24.10;;
1563;SDS011;775;51.958;7.976;2023-04-29T04:12:25;37.57;;;24.83;;
1563;SDS011;775;51.958;7.976;2023-04-29T04:14:54;36.83;;;25.03;;
1563;SDS011;775;51.958;7.976;2023-04-29T04:17:21;33.67;;;22.67;;
1563;SDS011;775;51.958;7.976;2023-04-29T04:19:48;33.20;;;22.23;;
1563;SDS011;775;51.958;7.976;2023-04-29T04:22:16;36.10;;;25.77;;
1563;SDS011;775;51.958;7.976;2023-04-29T04:24:43;34.07;;;22.73;;
1563;SDS011;775;51.958;7.976;2023-04-29T04:27:10;35.90;;;21.03;;
1563;SDS011;775;51.958;7.976;2023-04-29T04:29:37;36.70;;;21.00;;
1563;SDS011;775;51.958;7.976;2023-04-29T04:32:06;38.80;;;21.87;;
1563;SDS011;775;51.958;7.976;2023-04-29T04:34:33;33.03;;;19.10;;
1563;SDS011;775;51.958;7.976;2023-04-29T04:37:00;38.77;;;21.27;;
1563;SDS011;775;51.958;7.976;2023-04-29T04:39:27;35.13;;;20.70;;
1563;SDS011;775;51.958;7.976;2023-04-29T04:41:54;32.13;;;18.47;;
1563;SDS011;775;51.958;7.976;2023-04-29T04:44:21;33.87;;;20.70;;
1563;SDS011;775;51.958;7.976;2023-04-29T04:46:49;37.33;;;21.07;;
1563;SDS011;775;51.958;7.976;2023-04-29T04:49:17;32.00;;;18.87;;
1563;SDS011;775;51.958;7.976;2023-04-29T04:51:44;37.53;;;20.87;;
1563;SDS011;775;51.958;7.976;2023-04-29T04:54:12;36.63;;;21.17;;
1563;SDS011;775;51.958;7.976;2023-04-29T04:56:39;34.97;;;20.83;;
1563;SDS011;775;51.958;7.976;2023-04-29T04:59:06;36.00;;;20.60;;
1563;SDS011;775;51.958;7.976;2023-04-29T05:01:33;35.90;;;21.43;;
1563;SDS011;775;51.958;7.976;2023-04-29T05:04:00;35.67;;;20.43;;
1563;SDS011;775;51.958;7.976;2023-04-29T05:06:29;36.47;;;19.83;;
1563;SDS011;775;51.958;7.976;2023-04-29T05:08:56;36.07;;;20.77;;
1563;SDS011;775;51.958;7.976;2023-04-29T05:11:23;33.10;;;19.20;;
1563;SDS011;775;51.958;7.976;2023-04-29T05:13:50;34.60;;;19.97;;
1563;SDS011;775;51.958;7.976;2023-04-29T05:16:17;38.37;;;20.33;;
1563;SDS011;775;51.958;7.976;2023-04-29T05:18:44;30.93;;;17.73;;
1563;SDS011;775;51.958;7.976;2023-04-29T05:21:11;30.43;;;17.53;;
1563;SDS011;775;51.958;7.976;2023-04-29T05:23:39;32.17;;;17.80;;
1563;SDS011;775;51.958;7.976;2023-04-29T05:26:07;31.57;;;18.10;;
1563;SDS011;775;51.958;7.976;2023-04-29T05:28:34;29.90;;;17.37;;
1563;SDS011;775;51.958;7.976;2023-04-29T05:31:01;29.80;;;17.03;;
1563;SDS011;775;51.958;7.976;2023-04-29T05:33:28;30.97;;;17.30;;
1563;SDS011;775;51.958;7.976;2023-04-29T05:35:55;31.57;;;17.43;;
1563;SDS011;775;51.958;7.976;2023-04-29T05:38:22;29.07;;;16.33;;
1563;SDS011;775;51.958;7.976;2023-04-29T05:40:54;34.23;;;18.60;;
1563;SDS011;775;51.958;7.976;2023-04-29T05:43:21;29.30;;;17.00;;
1563;SDS011;775;51.958;7.976;2023-04-29T05:45:48;28.53;;;15.90;;
1563;SDS011;775;51.958;7.976;2023-04-29T05:48:15;31.20;;;16.97;;
1563;SDS011;775;51.958;7.976;2023-04-29T05:50:42;28.27;;;15.63;;
1563;SDS011;775;51.958;7.976;2023-04-29T05:53:12;30.47;;;16.50;;
1563;SDS011;775;51.958;7.976;2023-04-29T05:55:39;28.07;;;16.03;;
1563;SDS011;775;51.958;7.976;2023-04-29T05:58:10;28.10;;;14.83;;
1563;SDS011;775;51.958;7.976;2023-04-29T06:00:39;29.10;;;15.40;;
1563;SDS011;775;51.958;7.976;2023-04-29T06:03:07;27.13;;;14.47;;
1563;SDS011;775;51.958;7.976;2023-04-29T06:05:35;27.77;;;15.87;;
1563;SDS011;775;51.958;7.976;2023-04-29T06:08:02;29.63;;;16.30;;
1563;SDS011;775;51.958;7.976;2023-04-29T06:10:30;28.27;;;16.23;;
1563;SDS011;775;51.958;7.976;2023-04-29T06:12:58;28.37;;;15.90;;
1563;SDS011;775;51.958;7.976;2023-04-29T06:15:26;28.70;;;15.97;;
1563;SDS011;775;51.958;7.976;2023-04-29T06:17:53;25.13;;;15.27;;
1563;SDS011;775;51.958;7.976;2023-04-29T06:20:20;26.80;;;14.40;;
1563;SDS011;775;51.958;7.976;2023-04-29T06:22:47;28.97;;;15.97;;
1563;SDS011;775;51.958;7.976;2023-04-29T06:25:14;28.70;;;17.03;;
1563;SDS011;775;51.958;7.976;2023-04-29T06:27:42;28.33;;;16.60;;
1563;SDS011;775;51.958;7.976;2023-04-29T06:30:09;29.50;;;16.47;;
1563;SDS011;775;51.958;7.976;2023-04-29T06:32:38;30.07;;;17.63;;
1563;SDS011;775;51.958;7.976;2023-04-29T06:35:05;32.03;;;18.43;;
1563;SDS011;775;51.958;7.976;2023-04-29T06:37:32;28.57;;;16.80;;
1563;SDS011;775;51.958;7.976;2023-04-29T06:39:59;31.90;;;18.70;;
1563;SDS011;775;51.958;7.976;2023-04-29T06:42:27;31.20;;;17.37;;
1563;SDS011;775;51.958;7.976;2023-04-29T06:44:54;31.77;;;17.67;;
1563;SDS011;775;51.958;7.976;2023-04-29T06:47:21;32.30;;;20.00;;
1563;SDS011;775;51.958;7.976;2023-04-29T06:49:50;29.13;;;17.30;;
1563;SDS011;775;51.958;7.976;2023-04-29T06:52:18;31.53;;;19.07;;
1563;SDS011;775;51.958;7.976;2023-04-29T06:54:45;32.33;;;18.20;;
1563;SDS011;775;51.958;7.976;2023-04-29T06:57:12;30.73;;;18.27;;
1563;SDS011;775;51.958;7.976;2023-04-29T06:59:39;31.07;;;17.23;;
1563;SDS011;775;51.958;7.976;2023-04-29T07:02:06;31.43;;;18.07;;
1563;SDS011;775;51.958;7.976;2023-04-29T07:04:33;31.27;;;19.63;;
1563;SDS011;775;51.958;7.976;2023-04-29T07:07:03;33.70;;;19.60;;
1563;SDS011;775;51.958;7.976;2023-04-29T07:09:30;31.70;;;18.53;;
1563;SDS011;775;51.958;7.976;2023-04-29T07:11:58;34.60;;;18.53;;
1563;SDS011;775;51.958;7.976;2023-04-29T07:14:26;32.70;;;19.63;;
1563;SDS011;775;51.958;7.976;2023-04-29T07:16:53;32.03;;;18.27;;
1563;SDS011;775;51.958;7.976;2023-04-29T07:19:20;31.53;;;19.20;;
1563;SDS011;775;51.958;7.976;2023-04-29T07:21:47;34.07;;;19.13;;
1563;SDS011;775;51.958;7.976;2023-04-29T07:24:16;33.63;;;18.90;;
1563;SDS011;775;51.958;7.976;2023-04-29T07:26:43;32.70;;;19.57;;
1563;SDS011;775;51.958;7.976;2023-04-29T07:29:10;35.53;;;20.20;;
1563;SDS011;775;51.958;7.976;2023-04-29T07:31:37;36.50;;;19.87;;
1563;SDS011;775;51.958;7.976;2023-04-29T07:34:04;33.60;;;20.30;;
1563;SDS011;775;51.958;7.976;2023-04-29T07:36:31;29.73;;;18.90;;
1563;SDS011;775;51.958;7.976;2023-04-29T07:38:59;36.30;;;21.07;;
1563;SDS011;775;51.958;7.976;2023-04-29T07:41:27;35.57;;;21.87;;
1563;SDS011;775;51.958;7.976;2023-04-29T07:43:55;37.07;;;20.40;;
1563;SDS011;775;51.958;7.976;2023-04-29T07:46:22;34.83;;;19.90;;
1563;SDS011;775;51.958;7.976;2023-04-29T07:48:49;35.77;;;20.53;;
1563;SDS011;775;51.958;7.976;2023-04-29T07:51:17;37.00;;;19.33;;
1563;SDS011;775;51.958;7.976;2023-04-29T07:53:44;36.17;;;20.90;;
1563;SDS011;775;51.958;7.976;2023-04-29T07:56:11;36.53;;;20.67;;
1563;SDS011;775;51.958;7.976;2023-04-29T07:58:39;36.87;;;20.70;;
1563;SDS011;775;51.958;7.976;2023-04-29T08:01:06;39.37;;;22.50;;
1563;SDS011;775;51.958;7.976;2023-04-29T08:03:34;37.37;;;22.03;;
1563;SDS011;775;51.958;7.976;2023-04-29T08:06:01;35.60;;;21.00;;
1563;SDS011;775;51.958;7.976;2023-04-29T08:08:28;40.30;;;23.37;;
1563;SDS011;775;51.958;7.976;2023-04-29T08:10:56;37.10;;;21.83;;
1563;SDS011;775;51.958;7.976;2023-04-29T08:13:23;37.37;;;22.60;;
1563;SDS011;775;51.958;7.976;2023-04-29T08:15:51;38.80;;;21.70;;
1563;SDS011;775;51.958;7.976;2023-04-29T08:18:18;40.60;;;22.33;;
1563;SDS011;775;51.958;7.976;2023-04-29T08:20:46;43.43;;;22.90;;
1563;SDS011;775;51.958;7.976;2023-04-29T08:23:14;34.00;;;21.40;;
1563;SDS011;775;51.958;7.976;2023-04-29T08:25:41;38.43;;;21.70;;
1563;SDS011;775;51.958;7.976;2023-04-29T08:28:09;38.27;;;21.53;;
1563;SDS011;775;51.958;7.976;2023-04-29T08:30:37;36.70;;;20.73;;
1563;SDS011;775;51.958;7.976;2023-04-29T08:33:06;36.03;;;20.97;;
1563;SDS011;775;51.958;7.976;2023-04-29T08:35:33;35.90;;;20.20;;
1563;SDS011;775;51.958;7.976;2023-04-29T08:38:02;37.03;;;21.90;;
1563;SDS011;775;51.958;7.976;2023-04-29T08:40:30;37.37;;;22.83;;
1563;SDS011;775;51.958;7.976;2023-04-29T08:42:59;33.30;;;20.73;;
1563;SDS011;775;51.958;7.976;2023-04-29T08:45:27;37.27;;;22.43;;
1563;SDS011;775;51.958;7.976;2023-04-29T08:47:54;35.60;;;21.97;;
1563;SDS011;775;51.958;7.976;2023-04-29T08:50:23;35.70;;;21.57;;
1563;SDS011;775;51.958;7.976;2023-04-29T08:52:50;36.30;;;20.50;;
1563;SDS011;775;51.958;7.976;2023-04-29T08:55:17;37.20;;;21.73;;
1563;SDS011;775;51.958;7.976;2023-04-29T08:57:44;37.63;;;22.20;;
1563;SDS011;775;51.958;7.976;2023-04-29T09:00:14;38.73;;;22.90;;
1563;SDS011;775;51.958;7.976;2023-04-29T09:02:44;40.30;;;22.43;;
1563;SDS011;775;51.958;7.976;2023-04-29T09:05:11;35.73;;;21.20;;
1563;SDS011;775;51.958;7.976;2023-04-29T09:07:40;35.67;;;21.67;;
1563;SDS011;775;51.958;7.976;2023-04-29T09:10:07;36.77;;;22.57;;
1563;SDS011;775;51.958;7.976;2023-04-29T09:12:35;38.13;;;20.20;;
1563;SDS011;775;51.958;7.976;2023-04-29T09:15:02;32.37;;;20.77;;
1563;SDS011;775;51.958;7.976;2023-04-29T09:17:40;30.20;;;18.67;;
1563;SDS011;775;51.958;7.976;2023-04-29T09:20:27;33.50;;;20.50;;
1563;SDS011;775;51.958;7.976;2023-04-29T09:22:56;39.47;;;21.30;;
1563;SDS011;775;51.958;7.976;2023-04-29T09:25:24;35.10;;;21.00;;
1563;SDS011;775;51.958;7.976;2023-04-29T09:27:51;35.80;;;20.77;;
1563;SDS011;775;51.958;7.976;2023-04-29T09:30:18;34.83;;;21.57;;
1563;SDS011;775;51.958;7.976;2023-04-29T09:32:45;31.37;;;18.77;;
1563;SDS011;775;51.958;7.976;2023-04-29T09:35:29;30.73;;;18.53;;
1563;SDS011;775;51.958;7.976;2023-04-29T09:38:08;30.67;;;18.37;;
1563;SDS011;775;51.958;7.976;2023-04-29T09:40:36;34.73;;;18.07;;
1563;SDS011;775;51.958;7.976;2023-04-29T09:43:03;32.20;;;18.13;;
1563;SDS011;775;51.958;7.976;2023-04-29T09:45:38;30.37;;;18.50;;
1563;SDS011;775;51.958;7.976;2023-04-29T09:48:06;30.20;;;18.23;;
1563;SDS011;775;51.958;7.976;2023-04-29T09:50:34;34.13;;;18.30;;
1563;SDS011;775;51.958;7.976;2023-04-29T09:53:02;32.20;;;18.90;;
1563;SDS011;775;51.958;7.976;2023-04-29T09:55:30;32.07;;;18.90;;
1563;SDS011;775;51.958;7.976;2023-04-29T09:57:57;34.47;;;19.80;;
1563;SDS011;775;51.958;7.976;2023-04-29T10:00:25;33.83;;;18.73;;
1563;SDS011;775;51.958;7.976;2023-04-29T10:02:55;32.63;;;19.63;;
1563;SDS011;775;51.958;7.976;2023-04-29T10:05:24;31.00;;;19.43;;
1563;SDS011;775;51.958;7.976;2023-04-29T10:07:53;33.73;;;18.80;;
1563;SDS011;775;51.958;7.976;2023-04-29T10:10:21;29.53;;;18.37;;
1563;SDS011;775;51.958;7.976;2023-04-29T10:12:51;32.63;;;18.27;;
1563;SDS011;775;51.958;7.976;2023-04-29T10:15:19;32.17;;;19.33;;
1563;SDS011;775;51.958;7.976;2023-04-29T10:17:48;32.63;;;18.60;;
1563;SDS011;775;51.958;7.976;2023-04-29T10:20:18;35.13;;;18.40;;
1563;SDS011;775;51.958;7.976;2023-04-29T10:22:48;31.97;;;19.23;;
1563;SDS011;775;51.958;7.976;2023-04-29T10:25:16;35.77;;;18.90;;
1563;SDS011;775;51.958;7.976;2023-04-29T10:27:43;30.17;;;18.47;;
1563;SDS011;775;51.958;7.976;2023-04-29T10:30:12;30.27;;;17.40;;
1563;SDS011;775;51.958;7.976;2023-04-29T10:32:40;30.63;;;18.53;;
1563;SDS011;775;51.958;7.976;2023-04-29T10:35:08;26.60;;;15.73;;
1563;SDS011;775;51.958;7.976;2023-04-29T10:37:35;28.60;;;17.10;;
1563;SDS011;775;51.958;7.976;2023-04-29T10:40:06;30.60;;;17.83;;
1563;SDS011;775;51.958;7.976;2023-04-29T10:42:36;33.50;;;20.33;;
1563;SDS011;775;51.958;7.976;2023-04-29T10:45:20;27.47;;;17.10;;
1563;SDS011;775;51.958;7.976;2023-04-29T10:50:33;26.53;;;15.67;;
1563;SDS011;775;51.958;7.976;2023-04-29T10:53:01;28.00;;;15.40;;
1563;SDS011;775;51.958;7.976;2023-04-29T10:55:29;28.87;;;16.40;;
1563;SDS011;775;51.958;7.976;2023-04-29T10:57:57;27.33;;;15.27;;
1563;SDS011;775;51.958;7.976;2023-04-29T11:00:26;28.17;;;15.50;;
1563;SDS011;775;51.958;7.976;2023-04-29T11:02:53;24.63;;;14.63;;
1563;SDS011;775;51.958;7.976;2023-04-29T11:05:28;25.30;;;14.17;;
1563;SDS011;775;51.958;7.976;2023-04-29T11:08:07;28.00;;;15.60;;
1563;SDS011;775;51.958;7.976;2023-04-29T11:10:35;22.90;;;13.67;;
1563;SDS011;775;51.958;7.976;2023-04-29T11:13:21;25.83;;;13.73;;
1563;SDS011;775;51.958;7.976;2023-04-29T11:15:51;22.23;;;13.10;;
1563;SDS011;775;51.958;7.976;2023-04-29T11:18:18;23.27;;;13.33;;
1563;SDS011;775;51.958;7.976;2023-04-29T11:23:32;22.87;;;12.37;;
1563;SDS011;775;51.958;7.976;2023-04-29T11:25:59;30.83;;;13.70;;
1563;SDS011;775;51.958;7.976;2023-04-29T11:28:27;22.77;;;13.00;;
1563;SDS011;775;51.958;7.976;2023-04-29T11:30:55;28.07;;;14.40;;
1563;SDS011;775;51.958;7.976;2023-04-29T11:33:22;22.30;;;11.90;;
1563;SDS011;775;51.958;7.976;2023-04-29T11:35:51;23.50;;;13.60;;
1563;SDS011;775;51.958;7.976;2023-04-29T11:38:22;24.00;;;11.90;;
1563;SDS011;775;51.958;7.976;2023-04-29T11:40:50;22.00;;;11.87;;
1563;SDS011;775;51.958;7.976;2023-04-29T11:43:17;21.97;;;11.63;;
1563;SDS011;775;51.958;7.976;2023-04-29T11:45:44;25.13;;;12.53;;
1563;SDS011;775;51.958;7.976;2023-04-29T11:48:17;20.97;;;11.47;;
1563;SDS011;775;51.958;7.976;2023-04-29T11:50:44;20.20;;;11.60;;
1563;SDS011;775;51.958;7.976;2023-04-29T11:53:11;22.27;;;11.77;;
1563;SDS011;775;51.958;7.976;2023-04-29T11:55:40;19.73;;;9.93;;
1563;SDS011;775;51.958;7.976;2023-04-29T11:58:08;19.20;;;10.77;;
1563;SDS011;775;51.958;7.976;2023-04-29T12:00:35;19.87;;;10.47;;
1563;SDS011;775;51.958;7.976;2023-04-29T12:03:06;20.77;;;10.13;;
1563;SDS011;775;51.958;7.976;2023-04-29T12:05:35;24.37;;;11.03;;
1563;SDS011;775;51.958;7.976;2023-04-29T12:08:02;21.33;;;10.23;;
1563;SDS011;775;51.958;7.976;2023-04-29T12:10:29;20.93;;;9.90;;
1563;SDS011;775;51.958;7.976;2023-04-29T12:12:56;20.67;;;10.40;;
1563;SDS011;775;51.958;7.976;2023-04-29T12:15:24;22.73;;;10.53;;
1563;SDS011;775;51.958;7.976;2023-04-29T12:17:51;21.33;;;10.57;;
1563;SDS011;775;51.958;7.976;2023-04-29T12:20:19;20.10;;;9.40;;
1563;SDS011;775;51.958;7.976;2023-04-29T12:22:47;19.97;;;8.83;;
1563;SDS011;775;51.958;7.976;2023-04-29T12:25:14;19.03;;;9.60;;
1563;SDS011;775;51.958;7.976;2023-04-29T12:27:42;23.03;;;10.37;;
1563;SDS011;775;51.958;7.976;2023-04-29T12:30:09;21.27;;;10.83;;
1563;SDS011;775;51.958;7.976;2023-04-29T12:32:37;21.70;;;9.30;;
1563;SDS011;775;51.958;7.976;2023-04-29T12:35:04;21.63;;;10.83;;
1563;SDS011;775;51.958;7.976;2023-04-29T12:37:32;23.80;;;9.90;;
1563;SDS011;775;51.958;7.976;2023-04-29T12:40:00;18.27;;;9.03;;
1563;SDS011;775;51.958;7.976;2023-04-29T12:42:30;18.77;;;10.00;;
1563;SDS011;775;51.958;7.976;2023-04-29T12:44:58;22.37;;;9.97;;
1563;SDS011;775;51.958;7.976;2023-04-29T12:47:30;21.17;;;9.50;;
1563;SDS011;775;51.958;7.976;2023-04-29T12:49:59;21.40;;;10.27;;
1563;SDS011;775;51.958;7.976;2023-04-29T12:52:27;19.70;;;9.90;;
1563;SDS011;775;51.958;7.976;2023-04-29T12:54:55;21.33;;;9.40;;
1563;SDS011;775;51.958;7.976;2023-04-29T12:57:23;19.13;;;9.57;;
1563;SDS011;775;51.958;7.976;2023-04-29T12:59:51;18.37;;;9.10;;
1563;SDS011;775;51.958;7.976;2023-04-29T13:02:18;18.93;;;9.03;;
1563;SDS011;775;51.958;7.976;2023-04-29T13:04:45;19.20;;;8.00;;
1563;SDS011;775;51.958;7.976;2023-04-29T13:07:13;21.63;;;8.93;;
1563;SDS011;775;51.958;7.976;2023-04-29T13:09:40;20.40;;;9.20;;
1563;SDS011;775;51.958;7.976;2023-04-29T13:12:07;20.10;;;9.20;;
1563;SDS011;775;51.958;7.976;2023-04-29T13:14:35;22.37;;;10.10;;
1563;SDS011;775;51.958;7.976;2023-04-29T13:17:02;19.60;;;8.80;;
1563;SDS011;775;51.958;7.976;2023-04-29T13:19:30;18.40;;;7.87;;
1563;SDS011;775;51.958;7.976;2023-04-29T13:21:57;19.57;;;8.10;;
1563;SDS011;775;51.958;7.976;2023-04-29T13:24:24;18.83;;;8.67;;
1563;SDS011;775;51.958;7.976;2023-04-29T13:26:51;19.10;;;8.80;;
1563;SDS011;775;51.958;7.976;2023-04-29T13:29:19;22.33;;;7.90;;
1563;SDS011;775;51.958;7.976;2023-04-29T13:31:47;17.23;;;7.70;;
1563;SDS011;775;51.958;7.976;2023-04-29T13:34:14;17.00;;;7.23;;
1563;SDS011;775;51.958;7.976;2023-04-29T13:36:41;18.57;;;7.60;;
1563;SDS011;775;51.958;7.976;2023-04-29T13:39:08;18.33;;;8.40;;
1563;SDS011;775;51.958;7.976;2023-04-29T13:41:36;18.60;;;7.90;;
1563;SDS011;775;51.958;7.976;2023-04-29T13:44:03;16.87;;;7.83;;
1563;SDS011;775;51.958;7.976;2023-04-29T13:46:30;19.37;;;8.20;;
1563;SDS011;775;51.958;7.976;2023-04-29T13:48:58;17.43;;;6.70;;
1563;SDS011;775;51.958;7.976;2023-04-29T13:51:26;17.57;;;6.90;;
1563;SDS011;775;51.958;7.976;2023-04-29T13:53:53;18.00;;;8.90;;
1563;SDS011;775;51.958;7.976;2023-04-29T13:56:20;15.90;;;6.70;;
1563;SDS011;775;51.958;7.976;2023-04-29T13:58:49;20.40;;;8.40;;
1563;SDS011;775;51.958;7.976;2023-04-29T14:01:17;16.83;;;7.37;;
1563;SDS011;775;51.958;7.976;2023-04-29T14:03:44;21.27;;;8.40;;
1563;SDS011;775;51.958;7.976;2023-04-29T14:06:12;18.23;;;7.50;;
1563;SDS011;775;51.958;7.976;2023-04-29T14:08:40;17.93;;;8.27;;
1563;SDS011;775;51.958;7.976;2023-04-29T14:11:07;18.10;;;7.80;;
1563;SDS011;775;51.958;7.976;2023-04-29T14:13:34;18.63;;;7.13;;
1563;SDS011;775;51.958;7.976;2023-04-29T14:16:01;20.37;;;7.93;;
1563;SDS011;775;51.958;7.976;2023-04-29T14:18:30;19.87;;;8.07;;
1563;SDS011;775;51.958;7.976;2023-04-29T14:20:57;18.27;;;6.93;;
1563;SDS011;775;51.958;7.976;2023-04-29T14:23:26;16.27;;;7.10;;
1563;SDS011;775;51.958;7.976;2023-04-29T14:25:53;16.33;;;7.80;;
1563;SDS011;775;51.958;7.976;2023-04-29T14:28:20;16.37;;;6.50;;
1563;SDS011;775;51.958;7.976;2023-04-29T14:30:47;16.40;;;6.87;;
1563;SDS011;775;51.958;7.976;2023-04-29T14:33:14;16.90;;;6.57;;
1563;SDS011;775;51.958;7.976;2023-04-29T14:35:41;15.60;;;6.00;;
1563;SDS011;775;51.958;7.976;2023-04-29T14:38:08;16.70;;;7.00;;
1563;SDS011;775;51.958;7.976;2023-04-29T14:40:36;16.67;;;6.10;;
1563;SDS011;775;51.958;7.976;2023-04-29T14:43:04;14.80;;;5.50;;
1563;SDS011;775;51.958;7.976;2023-04-29T14:45:31;16.30;;;6.33;;
1563;SDS011;775;51.958;7.976;2023-04-29T14:47:58;18.50;;;6.00;;
1563;SDS011;775;51.958;7.976;2023-04-29T14:50:25;16.13;;;5.77;;
1563;SDS011;775;51.958;7.976;2023-04-29T14:52:53;14.70;;;4.50;;
1563;SDS011;775;51.958;7.976;2023-04-29T14:55:21;15.93;;;5.30;;
1563;SDS011;775;51.958;7.976;2023-04-29T14:57:50;14.00;;;4.90;;
1563;SDS011;775;51.958;7.976;2023-04-29T15:00:17;14.23;;;4.83;;
1563;SDS011;775;51.958;7.976;2023-04-29T15:02:45;15.10;;;5.43;;
1563;SDS011;775;51.958;7.976;2023-04-29T15:05:14;13.40;;;4.50;;
1563;SDS011;775;51.958;7.976;2023-04-29T15:07:42;14.73;;;4.97;;
1563;SDS011;775;51.958;7.976;2023-04-29T15:10:09;14.77;;;5.40;;
1563;SDS011;775;51.958;7.976;2023-04-29T15:12:36;15.90;;;5.37;;
1563;SDS011;775;51.958;7.976;2023-04-29T15:15:05;15.20;;;5.20;;